Time,TemperatureF,DewpointF,PressureIn,WindDirection,WindDirectionDegrees,WindSpeedMPH,WindSpeedGustMPH,Humidity,HourlyPrecipIn,Conditions,Clouds,dailyrainin,SolarRadiationWatts/m^2,SoftwareType,DateUTC
2013-02-03 00:05:00,38.1,34.3,30.05,WSW,242,0.0,0.0,86,0.00,RA,SCT,0.00,0.0,WeatherDisplay:10.37,2013-02-03 05:05:00,
2013-02-03 00:10:00,38.1,34.2,30.05,WSW,242,0.0,0.0,86,0.00,,SCT,0.00,0.0,WeatherDisplay:10.37,2013-02-03 05:10:00,
2013-02-03 00:15:00,38.0,34.2,30.05,WSW,242,0.0,0.0,86,0.00,,SCT,0.00,0.0,WeatherDisplay:10.37,2013-02-03 05:15:00,
2013-02-03 00:20:00,38.0,34.2,30.04,WSW,242,0.0,0.0,86,0.00,,SCT,0.00,0.0,WeatherDisplay:10.37,2013-02-03 05:20:00,
2013-02-03 00:25:00,37.9,34.1,30.04,WSW,242,0.0,0.0,86,0.00,,SCT,0.00,0.0,WeatherDisplay:10.37,2013-02-03 05:25:00,
2013-02-03 00:30:00,37.9,34.1,30.03,WSW,242,0.0,0.0,86,0.00,,SCT,0.00,0.0,WeatherDisplay:10.37,2013-02-03 05:30:00,
2013-02-03 00:40:00,37.8,34.0,30.03,WSW,242,0.0,0.0,86,0.00,,SCT,0.00,0.0,WeatherDisplay:10.37,2013-02-03 05:40:00,
2013-02-03 00:45:00,37.7,33.9,30.02,WSW,242,0.0,0.0,86,0.00,,SCT,0.00,0.0,WeatherDisplay:10.37,2013-02-03 05:45:00,
2013-02-03 00:50:00,37.7,33.8,30.02,WSW,242,0.0,0.0,86,0.00,,SCT,0.00,0.0,WeatherDisplay:10.37,2013-02-03 05:50:00,
2013-02-03 00:55:00,37.5,33.7,30.02,WSW,242,0.0,1.0,86,0.00,,SCT,0.00,0.0,WeatherDisplay:10.37,2013-02-03 05:55:00,
2013-02-03 01:00:00,37.3,33.5,30.02,WSW,243,0.0,0.0,86,0.00,,SCT,0.00,0.0,WeatherDisplay:10.37,2013-02-03 06:00:00,
2013-02-03 01:05:00,37.1,33.0,30.01,WSW,243,0.0,0.0,85,0.00,,SCT,0.00,0.0,WeatherDisplay:10.37,2013-02-03 06:05:00,
2013-02-03 01:10:00,36.8,33.0,30.01,WSW,243,0.0,1.0,86,0.00,,SCT,0.00,0.0,WeatherDisplay:10.37,2013-02-03 06:10:00,
2013-02-03 01:15:00,36.6,32.8,30.02,WSW,243,0.0,1.0,86,0.00,,SCT,0.00,0.0,WeatherDisplay:10.37,2013-02-03 06:15:00,
2013-02-03 01:20:00,36.4,32.3,30.02,WSW,242,0.0,0.0,85,0.00,,SCT,0.00,0.0,WeatherDisplay:10.37,2013-02-03 06:20:00,
2013-02-03 01:25:00,36.2,32.4,30.01,WSW,242,0.0,0.0,86,0.00,,SCT,0.00,0.0,WeatherDisplay:10.37,2013-02-03 06:25:00,
2013-02-03 01:30:00,36.0,31.9,30.01,WSW,243,0.0,0.0,85,0.00,,SCT,0.00,0.0,WeatherDisplay:10.37,2013-02-03 06:30:00,
2013-02-03 01:35:00,35.9,32.1,30.01,WSW,243,0.0,0.0,86,0.00,,SCT,0.00,0.0,WeatherDisplay:10.37,2013-02-03 06:35:00,
2013-02-03 01:40:00,35.7,31.9,30.01,WSW,243,0.0,0.0,86,0.00,,SCT,0.00,0.0,WeatherDisplay:10.37,2013-02-03 06:40:00,
2013-02-03 01:45:00,35.7,31.9,30.01,WSW,243,0.0,1.0,86,0.00,,SCT,0.00,0.0,WeatherDisplay:10.37,2013-02-03 06:45:00,
2013-02-03 01:50:00,35.7,31.9,30.01,WSW,243,0.0,1.0,86,0.00,,SCT,0.00,0.0,WeatherDisplay:10.37,2013-02-03 06:50:00,
2013-02-03 01:55:00,35.7,32.2,30.00,WSW,243,0.0,1.0,87,0.00,,SCT,0.00,0.0,WeatherDisplay:10.37,2013-02-03 06:55:00,
2013-02-03 02:00:00,35.7,32.2,30.00,WSW,242,0.0,1.0,87,0.00,,SCT,0.00,0.0,WeatherDisplay:10.37,2013-02-03 07:00:00,
2013-02-03 02:05:00,35.7,32.2,30.00,WSW,243,0.0,1.0,87,0.00,,SCT,0.00,0.0,WeatherDisplay:10.37,2013-02-03 07:05:00,
2013-02-03 02:10:00,35.9,32.4,30.00,WSW,242,0.0,1.0,87,0.00,,SCT,0.00,0.0,WeatherDisplay:10.37,2013-02-03 07:10:00,
2013-02-03 02:20:00,36.0,32.8,30.00,WSW,242,0.0,3.0,88,0.00,,SCT,0.00,0.0,WeatherDisplay:10.37,2013-02-03 07:20:00,
2013-02-03 02:25:00,36.1,32.9,29.99,WSW,242,0.0,5.0,88,0.00,,SCT,0.00,0.0,WeatherDisplay:10.37,2013-02-03 07:25:00,
2013-02-03 02:30:00,36.1,32.9,29.99,WSW,242,0.0,2.0,88,0.00,,SCT,0.00,0.0,WeatherDisplay:10.37,2013-02-03 07:30:00,
2013-02-03 02:35:00,36.2,33.0,29.99,WSW,242,0.0,1.0,88,0.00,,SCT,0.00,0.0,WeatherDisplay:10.37,2013-02-03 07:35:00,
2013-02-03 02:40:00,36.2,33.0,29.99,WSW,242,0.0,2.0,88,0.00,,SCT,0.00,0.0,WeatherDisplay:10.37,2013-02-03 07:40:00,
2013-02-03 02:45:00,36.2,33.0,29.98,WSW,242,0.0,1.0,88,0.00,,SCT,0.00,0.0,WeatherDisplay:10.37,2013-02-03 07:45:00,
2013-02-03 02:50:00,36.3,33.1,29.99,WSW,242,0.0,2.0,88,0.00,,SCT,0.00,0.0,WeatherDisplay:10.37,2013-02-03 07:50:00,
2013-02-03 02:55:00,36.3,33.1,29.98,WSW,242,0.0,1.0,88,0.00,,SCT,0.00,0.0,WeatherDisplay:10.37,2013-02-03 07:55:00,
2013-02-03 03:00:00,36.2,33.0,29.98,WSW,242,0.0,0.0,88,0.00,,SCT,0.00,0.0,WeatherDisplay:10.37,2013-02-03 08:00:00,
2013-02-03 03:05:00,36.2,33.0,29.97,WSW,242,0.0,1.0,88,0.00,,SCT,0.00,0.0,WeatherDisplay:10.37,2013-02-03 08:05:00,
2013-02-03 03:10:00,36.1,32.9,29.97,WSW,242,0.0,0.0,88,0.00,,SCT,0.00,0.0,WeatherDisplay:10.37,2013-02-03 08:10:00,
2013-02-03 03:15:00,36.1,32.9,29.97,WSW,242,0.0,0.0,88,0.00,,SCT,0.00,0.0,WeatherDisplay:10.37,2013-02-03 08:15:00,
2013-02-03 03:20:00,36.0,32.8,29.96,WSW,242,0.0,0.0,88,0.00,,SCT,0.00,0.0,WeatherDisplay:10.37,2013-02-03 08:20:00,
2013-02-03 03:30:00,35.9,32.7,29.97,WSW,242,0.0,1.0,88,0.00,,SCT,0.00,0.0,WeatherDisplay:10.37,2013-02-03 08:30:00,
2013-02-03 03:35:00,35.8,32.6,29.97,WSW,242,0.0,1.0,88,0.00,,SCT,0.00,0.0,WeatherDisplay:10.37,2013-02-03 08:35:00,
2013-02-03 03:40:00,35.7,32.5,29.97,WSW,242,0.0,1.0,88,0.00,,SCT,0.00,0.0,WeatherDisplay:10.37,2013-02-03 08:40:00,
2013-02-03 03:45:00,35.7,32.5,29.97,WSW,242,0.0,0.0,88,0.00,,SCT,0.00,0.0,WeatherDisplay:10.37,2013-02-03 08:45:00,
2013-02-03 03:50:00,35.6,32.4,29.97,WSW,242,0.0,0.0,88,0.00,,SCT,0.00,0.0,WeatherDisplay:10.37,2013-02-03 08:50:00,
2013-02-03 03:55:00,35.5,32.3,29.97,WSW,242,0.0,0.0,88,0.00,,SCT,0.00,0.0,WeatherDisplay:10.37,2013-02-03 08:55:00,
2013-02-03 04:00:00,35.5,32.3,29.96,WSW,242,0.0,1.0,88,0.00,,SCT,0.00,0.0,WeatherDisplay:10.37,2013-02-03 09:00:00,
2013-02-03 04:05:00,35.4,32.2,29.96,WSW,242,0.0,1.0,88,0.00,,SCT,0.00,0.0,WeatherDisplay:10.37,2013-02-03 09:05:00,
2013-02-03 04:10:00,35.3,32.1,29.96,WSW,242,0.0,1.0,88,0.00,,SCT,0.00,0.0,WeatherDisplay:10.37,2013-02-03 09:10:00,
2013-02-03 04:15:00,35.2,32.0,29.96,WSW,242,0.0,1.0,88,0.00,,SCT,0.00,0.0,WeatherDisplay:10.37,2013-02-03 09:15:00,
2013-02-03 04:20:00,35.1,31.9,29.96,WSW,242,0.0,1.0,88,0.00,,SCT,0.00,0.0,WeatherDisplay:10.37,2013-02-03 09:20:00,
2013-02-03 04:25:00,35.1,31.9,29.96,WSW,242,0.0,0.0,88,0.00,,SCT,0.00,0.0,WeatherDisplay:10.37,2013-02-03 09:25:00,
2013-02-03 04:30:00,35.0,31.8,29.96,WSW,242,0.0,0.0,88,0.00,,SCT,0.00,0.0,WeatherDisplay:10.37,2013-02-03 09:30:00,
2013-02-03 04:35:00,35.0,31.8,29.96,WSW,242,0.0,0.0,88,0.00,,SCT,0.00,0.0,WeatherDisplay:10.37,2013-02-03 09:35:00,
2013-02-03 04:40:00,35.0,31.8,29.96,WSW,242,0.0,1.0,88,0.00,,SCT,0.00,0.0,WeatherDisplay:10.37,2013-02-03 09:40:00,
2013-02-03 04:45:00,35.0,31.8,29.96,WSW,242,0.0,0.0,88,0.00,,SCT,0.00,0.0,WeatherDisplay:10.37,2013-02-03 09:45:00,
2013-02-03 04:50:00,35.0,31.8,29.96,WSW,242,0.0,1.0,88,0.00,,SCT,0.00,0.0,WeatherDisplay:10.37,2013-02-03 09:50:00,
2013-02-03 04:55:00,34.9,31.7,29.96,WSW,242,0.0,1.0,88,0.00,,SCT,0.00,0.0,WeatherDisplay:10.37,2013-02-03 09:55:00,
2013-02-03 05:00:00,34.9,31.7,29.95,WSW,242,0.0,1.0,88,0.00,,SCT,0.00,0.0,WeatherDisplay:10.37,2013-02-03 10:00:00,
2013-02-03 05:05:00,34.9,31.7,29.96,WSW,242,0.0,2.0,88,0.00,,SCT,0.00,0.0,WeatherDisplay:10.37,2013-02-03 10:05:00,
2013-02-03 05:10:00,34.9,31.7,29.96,WSW,242,0.0,2.0,88,0.00,,SCT,0.00,0.0,WeatherDisplay:10.37,2013-02-03 10:10:00,
2013-02-03 05:15:00,35.0,32.1,29.96,WSW,242,0.0,1.0,89,0.00,,SCT,0.00,0.0,WeatherDisplay:10.37,2013-02-03 10:15:00,
2013-02-03 05:20:00,35.0,32.1,29.96,WSW,242,0.0,1.0,89,0.00,,SCT,0.00,0.0,WeatherDisplay:10.37,2013-02-03 10:20:00,
2013-02-03 05:25:00,35.0,32.1,29.96,WSW,242,0.0,2.0,89,0.00,,SCT,0.00,0.0,WeatherDisplay:10.37,2013-02-03 10:25:00,
2013-02-03 05:30:00,35.0,32.1,29.96,WSW,242,0.0,2.0,89,0.00,,SCT,0.00,0.0,WeatherDisplay:10.37,2013-02-03 10:30:00,
2013-02-03 05:35:00,35.0,32.1,29.95,WSW,242,0.0,1.0,89,0.00,,SCT,0.00,0.0,WeatherDisplay:10.37,2013-02-03 10:35:00,
2013-02-03 05:40:00,35.0,32.1,29.96,WSW,243,0.0,1.0,89,0.00,,SCT,0.00,0.0,WeatherDisplay:10.37,2013-02-03 10:40:00,
2013-02-03 05:45:00,34.9,32.0,29.96,WSW,243,0.0,1.0,89,0.00,,SCT,0.00,0.0,WeatherDisplay:10.37,2013-02-03 10:45:00,
2013-02-03 05:55:00,34.5,31.3,29.96,WSW,243,0.0,1.0,88,0.00,,SCT,0.00,0.0,WeatherDisplay:10.37,2013-02-03 10:55:00,
2013-02-03 06:00:00,34.4,31.2,29.96,WSW,243,0.0,1.0,88,0.00,,SCT,0.00,0.0,WeatherDisplay:10.37,2013-02-03 11:00:00,
2013-02-03 06:05:00,34.3,31.1,29.97,WSW,243,0.0,2.0,88,0.00,,SCT,0.00,0.0,WeatherDisplay:10.37,2013-02-03 11:05:00,
2013-02-03 06:25:00,34.1,31.2,29.97,WSW,243,1.0,4.0,89,0.00,,SCT,0.00,0.0,WeatherDisplay:10.37,2013-02-03 11:25:00,
2013-02-03 06:30:00,34.2,31.3,29.97,WSW,244,1.0,6.0,89,0.00,,SCT,0.00,0.0,WeatherDisplay:10.37,2013-02-03 11:30:00,
2013-02-03 06:35:00,34.2,31.3,29.97,WSW,244,0.0,3.0,89,0.00,,SCT,0.00,0.0,WeatherDisplay:10.37,2013-02-03 11:35:00,
2013-02-03 06:40:00,34.2,31.3,29.97,WSW,244,0.0,2.0,89,0.00,,SCT,0.00,0.0,WeatherDisplay:10.37,2013-02-03 11:40:00,
2013-02-03 06:45:00,34.1,31.2,29.97,WSW,244,0.0,1.0,89,0.00,,SCT,0.00,0.0,WeatherDisplay:10.37,2013-02-03 11:45:00,
2013-02-03 06:55:00,33.6,30.4,29.97,WSW,244,0.0,2.0,88,0.00,,SCT,0.00,0.0,WeatherDisplay:10.37,2013-02-03 11:55:00,
2013-02-03 07:00:00,33.5,30.3,29.98,WSW,244,0.0,3.0,88,0.00,,SCT,0.00,0.0,WeatherDisplay:10.37,2013-02-03 12:00:00,
2013-02-03 07:05:00,33.3,30.1,29.98,WSW,244,0.0,0.0,88,0.00,,SCT,0.00,0.0,WeatherDisplay:10.37,2013-02-03 12:05:00,
2013-02-03 07:10:00,33.2,30.0,29.98,WSW,244,0.0,0.0,88,0.00,,SCT,0.00,0.0,WeatherDisplay:10.37,2013-02-03 12:10:00,
2013-02-03 07:15:00,33.0,29.9,29.97,WSW,244,0.0,0.0,88,0.00,,SCT,0.00,0.0,WeatherDisplay:10.37,2013-02-03 12:15:00,
2013-02-03 07:20:00,32.9,29.7,29.97,WSW,244,0.0,0.0,88,0.00,,SCT,0.00,0.0,WeatherDisplay:10.37,2013-02-03 12:20:00,
2013-02-03 07:25:00,32.6,29.4,29.98,WSW,244,0.0,1.0,88,0.00,,SCT,0.00,5.0,WeatherDisplay:10.37,2013-02-03 12:25:00,
2013-02-03 07:30:00,32.5,29.3,29.97,WSW,244,0.0,0.0,88,0.00,,SCT,0.00,7.0,WeatherDisplay:10.37,2013-02-03 12:30:00,
2013-02-03 07:35:00,32.3,29.1,29.97,WSW,244,0.0,0.0,88,0.00,,SCT,0.00,9.0,WeatherDisplay:10.37,2013-02-03 12:35:00,
2013-02-03 07:40:00,32.1,28.9,29.97,WSW,244,0.0,0.0,88,0.00,,SCT,0.00,14.0,WeatherDisplay:10.37,2013-02-03 12:40:00,
2013-02-03 07:45:00,31.8,28.7,29.96,WSW,244,0.0,0.0,88,0.00,,SCT,0.00,35.0,WeatherDisplay:10.37,2013-02-03 12:45:00,
2013-02-03 07:50:00,31.6,28.2,29.96,WSW,244,0.0,0.0,87,0.00,,SCT,0.00,63.0,WeatherDisplay:10.37,2013-02-03 12:50:00,
2013-02-03 07:55:00,31.4,28.3,29.97,WSW,244,0.0,0.0,88,0.00,,SCT,0.00,77.0,WeatherDisplay:10.37,2013-02-03 12:55:00,
2013-02-03 08:00:00,31.4,28.3,29.97,WSW,244,0.0,0.0,88,0.00,,SCT,0.00,95.0,WeatherDisplay:10.37,2013-02-03 13:00:00,
2013-02-03 08:05:00,31.4,28.3,29.97,WSW,244,0.0,0.0,88,0.00,,SCT,0.00,109.0,WeatherDisplay:10.37,2013-02-03 13:05:00,
2013-02-03 08:10:00,31.4,28.3,29.97,WSW,244,0.0,0.0,88,0.00,,SCT,0.00,120.0,WeatherDisplay:10.37,2013-02-03 13:10:00,
2013-02-03 08:15:00,31.6,28.5,29.97,WSW,243,0.0,0.0,88,0.00,,SCT,0.00,134.0,WeatherDisplay:10.37,2013-02-03 13:15:00,
2013-02-03 08:20:00,32.0,28.9,29.97,WSW,243,0.0,1.0,88,0.00,,SCT,0.00,148.0,WeatherDisplay:10.37,2013-02-03 13:20:00,
2013-02-03 08:25:00,32.4,29.3,29.97,WSW,243,0.0,0.0,88,0.00,,SCT,0.00,160.0,WeatherDisplay:10.37,2013-02-03 13:25:00,
2013-02-03 08:30:00,32.9,29.7,29.97,WSW,243,0.0,1.0,88,0.00,,SCT,0.00,174.0,WeatherDisplay:10.37,2013-02-03 13:30:00,
2013-02-03 08:35:00,33.3,30.4,29.97,WSW,243,0.0,1.0,89,0.00,SCT,SCT,0.00,188.0,WeatherDisplay:10.37,2013-02-03 13:35:00,
2013-02-03 08:40:00,33.8,30.9,29.97,SW,222,0.0,2.0,89,0.00,CLR,SCT,0.00,204.0,WeatherDisplay:10.37,2013-02-03 13:40:00,
2013-02-03 08:45:00,34.4,31.5,29.97,SW,219,0.0,2.0,89,0.00,CLR,SCT,0.00,216.0,WeatherDisplay:10.37,2013-02-03 13:45:00,
2013-02-03 08:50:00,34.6,31.7,29.97,SW,219,0.0,1.0,89,0.00,CLR,SCT,0.00,232.0,WeatherDisplay:10.37,2013-02-03 13:50:00,
2013-02-03 08:55:00,35.1,32.2,29.96,SW,219,0.0,0.0,89,0.00,CLR,SCT,0.00,250.0,WeatherDisplay:10.37,2013-02-03 13:55:00,
2013-02-03 09:00:00,35.6,32.4,29.96,SW,219,0.0,1.0,88,0.00,CLR,SCT,0.00,285.0,WeatherDisplay:10.37,2013-02-03 14:00:00,
2013-02-03 09:05:00,36.1,32.9,29.96,SSW,213,0.0,1.0,88,0.00,CLR,SCT,0.00,371.0,WeatherDisplay:10.37,2013-02-03 14:05:00,
2013-02-03 09:10:00,36.8,33.0,29.96,SSW,198,0.0,3.0,86,0.00,CLR,SCT,0.00,355.0,WeatherDisplay:10.37,2013-02-03 14:10:00,
2013-02-03 09:15:00,37.3,32.6,29.96,SSW,198,1.0,4.0,83,0.00,CLR,SCT,0.00,155.0,WeatherDisplay:10.37,2013-02-03 14:15:00,
2013-02-03 09:20:00,37.7,31.1,29.97,SSW,197,3.0,5.0,77,0.00,CLR,SCT,0.00,146.0,WeatherDisplay:10.37,2013-02-03 14:20:00,
2013-02-03 09:25:00,38.0,30.4,29.97,SSW,196,1.0,4.0,74,0.00,CLR,SCT,0.00,207.0,WeatherDisplay:10.37,2013-02-03 14:25:00,
2013-02-03 09:30:00,38.2,30.3,29.97,SSW,200,1.0,4.0,73,0.00,CLR,SCT,0.00,327.0,WeatherDisplay:10.37,2013-02-03 14:30:00,
2013-02-03 09:35:00,38.5,30.2,29.97,SSW,207,1.0,4.0,72,0.00,CLR,SCT,0.00,374.0,WeatherDisplay:10.37,2013-02-03 14:35:00,
2013-02-03 09:40:00,38.8,29.8,29.97,SW,232,2.0,6.0,70,0.00,CLR,SCT,0.00,390.0,WeatherDisplay:10.37,2013-02-03 14:40:00,
2013-02-03 09:45:00,39.1,29.8,29.97,WSW,241,0.0,4.0,69,0.00,CLR,SCT,0.00,436.0,WeatherDisplay:10.37,2013-02-03 14:45:00,
2013-02-03 09:55:00,40.1,29.6,29.97,SSW,202,2.0,6.0,66,0.00,CLR,SCT,0.00,452.0,WeatherDisplay:10.37,2013-02-03 14:55:00,
2013-02-03 10:00:00,40.6,29.7,29.97,SW,225,1.0,9.0,65,0.00,CLR,SCT,0.00,462.0,WeatherDisplay:10.37,2013-02-03 15:00:00,
2013-02-03 10:05:00,41.0,29.4,29.97,WSW,240,3.0,7.0,63,0.00,CLR,SCT,0.00,478.0,WeatherDisplay:10.37,2013-02-03 15:05:00,
2013-02-03 10:10:00,41.4,28.9,29.97,WSW,250,6.0,10.0,61,0.00,CLR,SCT,0.00,489.0,WeatherDisplay:10.37,2013-02-03 15:10:00,
2013-02-03 10:15:00,41.6,28.4,29.97,WSW,258,3.0,12.0,59,0.00,CLR,SCT,0.00,499.0,WeatherDisplay:10.37,2013-02-03 15:15:00,
2013-02-03 10:20:00,42.0,29.1,29.97,WSW,255,5.0,12.0,60,0.00,CLR,SCT,0.00,512.0,WeatherDisplay:10.37,2013-02-03 15:20:00,
2013-02-03 10:25:00,42.2,28.9,29.97,WSW,254,5.0,9.0,59,0.00,CLR,SCT,0.00,526.0,WeatherDisplay:10.37,2013-02-03 15:25:00,
2013-02-03 10:30:00,42.3,29.0,29.96,WSW,252,5.0,8.0,59,0.00,CLR,SCT,0.00,538.0,WeatherDisplay:10.37,2013-02-03 15:30:00,
2013-02-03 10:35:00,42.5,29.6,29.96,WSW,256,5.0,10.0,60,0.00,CLR,SCT,0.00,548.0,WeatherDisplay:10.37,2013-02-03 15:35:00,
2013-02-03 10:40:00,42.9,29.5,29.96,West,267,7.0,12.0,59,0.00,CLR,SCT,0.00,557.0,WeatherDisplay:10.37,2013-02-03 15:40:00,
2013-02-03 10:45:00,43.2,29.9,29.95,West,259,5.0,12.0,59,0.00,CLR,SCT,0.00,584.0,WeatherDisplay:10.37,2013-02-03 15:45:00,
2013-02-03 10:50:00,43.6,30.7,29.95,WSW,253,8.0,14.0,60,0.00,CLR,SCT,0.00,663.0,WeatherDisplay:10.37,2013-02-03 15:50:00,
2013-02-03 10:55:00,43.9,29.7,29.95,WSW,255,7.0,14.0,57,0.00,CLR,SCT,0.00,353.0,WeatherDisplay:10.37,2013-02-03 15:55:00,
2013-02-03 11:00:00,44.2,29.9,29.95,West,259,7.0,13.0,57,0.00,CLR,SCT,0.00,364.0,WeatherDisplay:10.37,2013-02-03 16:00:00,
2013-02-03 11:05:00,44.2,30.0,29.95,West,264,6.0,13.0,57,0.00,CLR,SCT,0.00,388.0,WeatherDisplay:10.37,2013-02-03 16:05:00,
2013-02-03 11:10:00,44.4,30.1,29.95,West,262,5.0,14.0,57,0.00,CLR,SCT,0.00,355.0,WeatherDisplay:10.37,2013-02-03 16:10:00,
2013-02-03 11:15:00,44.7,30.4,29.95,WSW,245,10.0,17.0,57,0.00,CLR,SCT,0.00,396.0,WeatherDisplay:10.37,2013-02-03 16:15:00,
2013-02-03 11:20:00,45.1,31.2,29.94,SW,232,5.0,9.0,58,0.00,CLR,SCT,0.00,396.0,WeatherDisplay:10.37,2013-02-03 16:20:00,
2013-02-03 11:25:00,45.7,30.9,29.94,SW,235,10.0,15.0,56,0.00,CLR,SCT,0.00,283.0,WeatherDisplay:10.37,2013-02-03 16:25:00,
2013-02-03 11:30:00,46.0,29.3,29.94,WSW,250,10.0,23.0,52,0.00,FEW,SCT,0.00,236.0,WeatherDisplay:10.37,2013-02-03 16:30:00,
2013-02-03 11:35:00,46.1,29.9,29.94,West,260,7.0,16.0,53,0.00,CLR,SCT,0.00,772.0,WeatherDisplay:10.37,2013-02-03 16:35:00,
2013-02-03 11:40:00,46.3,30.1,29.93,WSW,253,9.0,16.0,53,0.00,FEW,SCT,0.00,207.0,WeatherDisplay:10.37,2013-02-03 16:40:00,
2013-02-03 11:45:00,46.4,30.2,29.93,WSW,241,9.0,15.0,53,0.00,FEW,SCT,0.00,299.0,WeatherDisplay:10.37,2013-02-03 16:45:00,
2013-02-03 11:50:00,46.2,29.5,29.93,WSW,247,8.0,20.0,52,0.00,SCT,SCT,0.00,262.0,WeatherDisplay:10.37,2013-02-03 16:50:00,
2013-02-03 11:55:00,46.1,29.9,29.92,WSW,250,8.0,12.0,53,0.00,SCT,SCT,0.00,301.0,WeatherDisplay:10.37,2013-02-03 16:55:00,
2013-02-03 12:00:00,46.0,29.8,29.92,WSW,253,10.0,18.0,53,0.00,SCT,SCT,0.00,162.0,WeatherDisplay:10.37,2013-02-03 17:00:00,
2013-02-03 12:05:00,46.0,29.3,29.92,WSW,258,7.0,22.0,52,0.00,SCT,SCT,0.00,243.0,WeatherDisplay:10.37,2013-02-03 17:05:00,
2013-02-03 12:10:00,46.0,29.8,29.92,WSW,250,10.0,14.0,53,0.00,BKN,SCT,0.00,197.0,WeatherDisplay:10.37,2013-02-03 17:10:00,
2013-02-03 12:15:00,46.0,29.8,29.91,WSW,256,7.0,22.0,53,0.00,BKN,SCT,0.00,209.0,WeatherDisplay:10.37,2013-02-03 17:15:00,
2013-02-03 12:20:00,46.3,30.5,29.90,West,267,6.0,17.0,54,0.00,SCT,SCT,0.00,759.0,WeatherDisplay:10.37,2013-02-03 17:20:00,
2013-02-03 12:25:00,47.0,30.2,29.91,West,259,10.0,16.0,52,0.00,CLR,SCT,0.00,733.0,WeatherDisplay:10.37,2013-02-03 17:25:00,
2013-02-03 12:35:00,47.7,30.4,29.90,WSW,251,9.0,20.0,51,0.00,CLR,SCT,0.00,742.0,WeatherDisplay:10.37,2013-02-03 17:35:00,
2013-02-03 12:40:00,47.9,30.1,29.90,West,263,8.0,16.0,50,0.00,CLR,SCT,0.00,747.0,WeatherDisplay:10.37,2013-02-03 17:40:00,
2013-02-03 12:45:00,48.2,29.9,29.90,West,268,7.0,17.0,49,0.00,CLR,SCT,0.00,745.0,WeatherDisplay:10.37,2013-02-03 17:45:00,
2013-02-03 12:50:00,48.2,29.4,29.90,West,263,12.0,17.0,48,0.00,FEW,SCT,0.00,886.0,WeatherDisplay:10.37,2013-02-03 17:50:00,
2013-02-03 12:55:00,48.1,29.8,29.90,WSW,257,6.0,12.0,49,0.00,SCT,SCT,0.00,227.0,WeatherDisplay:10.37,2013-02-03 17:55:00,
2013-02-03 13:00:00,47.9,29.6,29.90,WSW,246,7.0,13.0,49,0.00,SCT,SCT,0.00,281.0,WeatherDisplay:10.37,2013-02-03 18:00:00,
2013-02-03 13:05:00,47.7,29.0,29.89,WSW,246,14.0,21.0,48,0.00,SCT,SCT,0.00,364.0,WeatherDisplay:10.37,2013-02-03 18:05:00,
2013-02-03 13:10:00,47.8,29.5,29.89,WSW,253,12.0,20.0,49,0.00,SCT,SCT,0.00,272.0,WeatherDisplay:10.37,2013-02-03 18:10:00,
2013-02-03 13:15:00,47.7,29.5,29.89,West,260,10.0,17.0,49,0.00,SCT,SCT,0.00,415.0,WeatherDisplay:10.37,2013-02-03 18:15:00,
2013-02-03 13:20:00,48.0,29.8,29.88,West,275,5.0,15.0,49,0.00,FEW,SCT,0.00,334.0,WeatherDisplay:10.37,2013-02-03 18:20:00,
2013-02-03 13:25:00,48.3,30.0,29.88,West,272,6.0,12.0,49,0.00,SCT,SCT,0.00,218.0,WeatherDisplay:10.37,2013-02-03 18:25:00,
2013-02-03 13:30:00,48.4,30.1,29.88,West,270,8.0,16.0,49,0.00,SCT,SCT,0.00,287.0,WeatherDisplay:10.37,2013-02-03 18:30:00,
2013-02-03 13:35:00,48.5,30.2,29.88,West,272,6.0,18.0,49,0.00,SCT,SCT,0.00,264.0,WeatherDisplay:10.37,2013-02-03 18:35:00,
2013-02-03 13:40:00,48.4,30.1,29.87,West,273,7.0,16.0,49,0.00,SCT,SCT,0.00,272.0,WeatherDisplay:10.37,2013-02-03 18:40:00,
2013-02-03 13:45:00,48.6,29.8,29.87,West,268,9.0,17.0,48,0.00,SCT,SCT,0.00,722.0,WeatherDisplay:10.37,2013-02-03 18:45:00,
2013-02-03 13:50:00,48.8,30.4,29.87,West,262,9.0,18.0,49,0.00,FEW,SCT,0.00,758.0,WeatherDisplay:10.37,2013-02-03 18:50:00,
2013-02-03 13:55:00,49.2,30.8,29.87,West,262,6.0,16.0,49,0.00,CLR,SCT,0.00,821.0,WeatherDisplay:10.37,2013-02-03 18:55:00,
2013-02-03 14:00:00,49.4,30.0,29.87,West,266,7.0,12.0,47,0.00,FEW,SCT,0.00,167.0,WeatherDisplay:10.37,2013-02-03 19:00:00,
2013-02-03 14:05:00,49.2,29.3,29.87,West,279,8.0,17.0,46,0.00,BKN,SCT,0.00,163.0,WeatherDisplay:10.37,2013-02-03 19:05:00,
2013-02-03 14:10:00,48.9,29.5,29.87,West,279,7.0,16.0,47,0.00,BKN,SCT,0.00,185.0,WeatherDisplay:10.37,2013-02-03 19:10:00,
2013-02-03 14:15:00,48.5,28.6,29.88,WNW,284,7.0,16.0,46,0.00,BKN,SCT,0.00,264.0,WeatherDisplay:10.37,2013-02-03 19:15:00,
2013-02-03 14:20:00,48.6,29.3,29.87,WNW,291,5.0,12.0,47,0.00,BKN,SCT,0.00,258.0,WeatherDisplay:10.37,2013-02-03 19:20:00,
2013-02-03 14:25:00,48.5,28.6,29.87,WNW,286,12.0,20.0,46,0.00,BKN,SCT,0.00,209.0,WeatherDisplay:10.37,2013-02-03 19:25:00,
2013-02-03 14:30:00,48.1,28.8,29.87,WNW,290,10.0,26.0,47,0.00,BKN,SCT,0.00,149.0,WeatherDisplay:10.37,2013-02-03 19:30:00,
2013-02-03 14:35:00,47.8,28.0,29.88,WNW,289,7.0,13.0,46,0.00,BKN,SCT,0.00,146.0,WeatherDisplay:10.37,2013-02-03 19:35:00,
2013-02-03 14:40:00,47.7,28.4,29.88,WNW,286,6.0,15.0,47,0.00,BKN,SCT,0.00,165.0,WeatherDisplay:10.37,2013-02-03 19:40:00,
2013-02-03 14:45:00,47.6,27.8,29.88,WNW,285,5.0,12.0,46,0.00,BKN,SCT,0.00,179.0,WeatherDisplay:10.37,2013-02-03 19:45:00,
2013-02-03 14:50:00,47.5,27.7,29.88,WNW,292,3.0,13.0,46,0.00,BKN,SCT,0.00,171.0,WeatherDisplay:10.37,2013-02-03 19:50:00,
2013-02-03 14:55:00,47.5,27.7,29.88,WNW,295,2.0,15.0,46,0.00,BKN,SCT,0.00,167.0,WeatherDisplay:10.37,2013-02-03 19:55:00,
2013-02-03 15:00:00,47.5,27.7,29.88,WNW,289,5.0,14.0,46,0.00,BKN,SCT,0.00,160.0,WeatherDisplay:10.37,2013-02-03 20:00:00,
2013-02-03 15:05:00,47.5,27.7,29.89,WNW,287,6.0,12.0,46,0.00,BKN,SCT,0.00,200.0,WeatherDisplay:10.37,2013-02-03 20:05:00,
2013-02-03 15:10:00,47.6,27.8,29.89,WNW,283,6.0,10.0,46,0.00,BKN,SCT,0.00,178.0,WeatherDisplay:10.37,2013-02-03 20:10:00,
2013-02-03 15:15:00,47.6,27.8,29.89,WNW,283,3.0,7.0,46,0.00,BKN,SCT,0.00,151.0,WeatherDisplay:10.37,2013-02-03 20:15:00,
2013-02-03 15:20:00,47.7,28.4,29.89,WNW,288,6.0,10.0,47,0.00,BKN,SCT,0.00,130.0,WeatherDisplay:10.37,2013-02-03 20:20:00,
2013-02-03 15:25:00,47.5,28.3,29.89,NW,304,7.0,12.0,47,0.00,BKN,SCT,0.00,120.0,WeatherDisplay:10.37,2013-02-03 20:25:00,
2013-02-03 15:30:00,47.4,28.7,29.89,NW,306,5.0,12.0,48,0.00,BKN,SCT,0.00,141.0,WeatherDisplay:10.37,2013-02-03 20:30:00,
2013-02-03 15:35:00,47.3,28.6,29.89,WNW,285,3.0,9.0,48,0.00,BKN,SCT,0.00,100.0,WeatherDisplay:10.37,2013-02-03 20:35:00,
2013-02-03 15:40:00,47.2,29.0,29.90,West,278,2.0,8.0,49,0.00,BKN,SCT,0.00,125.0,WeatherDisplay:10.37,2013-02-03 20:40:00,
2013-02-03 15:50:00,47.1,28.4,29.89,WNW,282,5.0,10.0,48,0.00,BKN,SCT,0.00,111.0,WeatherDisplay:10.37,2013-02-03 20:50:00,
2013-02-03 15:55:00,47.1,28.4,29.89,WNW,288,6.0,10.0,48,0.00,BKN,SCT,0.00,199.0,WeatherDisplay:10.37,2013-02-03 20:55:00,
2013-02-03 16:00:00,47.3,28.1,29.90,WNW,291,6.0,12.0,47,0.00,BKN,SCT,0.00,98.0,WeatherDisplay:10.37,2013-02-03 21:00:00,
2013-02-03 16:05:00,47.3,27.0,29.90,WNW,293,8.0,15.0,45,0.00,BKN,SCT,0.00,54.0,WeatherDisplay:10.37,2013-02-03 21:05:00,
2013-02-03 16:15:00,46.9,27.7,29.90,WNW,303,5.0,14.0,47,0.00,BKN,SCT,0.00,352.0,WeatherDisplay:10.37,2013-02-03 21:15:00,
2013-02-03 16:20:00,46.9,27.2,29.90,WNW,296,8.0,17.0,46,0.00,SCT,SCT,0.00,332.0,WeatherDisplay:10.37,2013-02-03 21:20:00,
2013-02-03 16:25:00,47.2,27.4,29.90,WNW,284,5.0,13.0,46,0.00,FEW,SCT,0.00,313.0,WeatherDisplay:10.37,2013-02-03 21:25:00,
2013-02-03 16:30:00,47.5,27.2,29.90,West,276,7.0,17.0,45,0.00,FEW,SCT,0.00,294.0,WeatherDisplay:10.37,2013-02-03 21:30:00,
2013-02-03 16:35:00,47.7,26.3,29.91,West,267,8.0,16.0,43,0.00,FEW,SCT,0.00,279.0,WeatherDisplay:10.37,2013-02-03 21:35:00,
2013-02-03 16:40:00,47.8,25.8,29.91,West,269,8.0,13.0,42,0.00,SCT,SCT,0.00,60.0,WeatherDisplay:10.37,2013-02-03 21:40:00,
2013-02-03 16:50:00,47.4,25.4,29.92,West,278,7.0,15.0,42,0.00,BKN,SCT,0.00,248.0,WeatherDisplay:10.37,2013-02-03 21:50:00,
2013-02-03 16:55:00,47.3,25.3,29.93,WNW,284,6.0,14.0,42,0.00,FEW,SCT,0.00,227.0,WeatherDisplay:10.37,2013-02-03 21:55:00,
2013-02-03 17:05:00,47.0,25.1,29.94,WNW,300,3.0,10.0,42,0.00,SCT,SCT,0.00,121.0,WeatherDisplay:10.37,2013-02-03 22:05:00,
2013-02-03 17:10:00,46.8,24.9,29.94,WNW,294,6.0,8.0,42,0.00,SCT,SCT,0.00,139.0,WeatherDisplay:10.37,2013-02-03 22:10:00,
2013-02-03 17:15:00,46.6,25.3,29.94,WNW,299,2.0,7.0,43,0.00,,SCT,0.00,49.0,WeatherDisplay:10.37,2013-02-03 22:15:00,
2013-02-03 17:20:00,46.4,24.5,29.94,WNW,301,5.0,8.0,42,0.00,SCT,SCT,0.00,109.0,WeatherDisplay:10.37,2013-02-03 22:20:00,
2013-02-03 17:30:00,46.0,24.7,29.95,WNW,284,3.0,10.0,43,0.00,BKN,SCT,0.00,84.0,WeatherDisplay:10.37,2013-02-03 22:30:00,
2013-02-03 17:35:00,45.8,24.5,29.95,West,276,5.0,8.0,43,0.00,BKN,SCT,0.00,47.0,WeatherDisplay:10.37,2013-02-03 22:35:00,
2013-02-03 17:40:00,45.5,24.3,29.95,West,265,7.0,12.0,43,0.00,BKN,SCT,0.00,18.0,WeatherDisplay:10.37,2013-02-03 22:40:00,
2013-02-03 17:45:00,45.2,24.0,29.95,West,268,5.0,15.0,43,0.00,BKN,SCT,0.00,11.0,WeatherDisplay:10.37,2013-02-03 22:45:00,
2013-02-03 17:50:00,44.9,24.3,29.95,West,274,5.0,12.0,44,0.00,BKN,SCT,0.00,7.0,WeatherDisplay:10.37,2013-02-03 22:50:00,
2013-02-03 17:55:00,44.5,24.5,29.95,West,270,5.0,8.0,45,0.00,BKN,SCT,0.00,5.0,WeatherDisplay:10.37,2013-02-03 22:55:00,
2013-02-03 18:00:00,44.1,24.1,29.95,West,274,3.0,9.0,45,0.00,BKN,SCT,0.00,0.0,WeatherDisplay:10.37,2013-02-03 23:00:00,
2013-02-03 18:05:00,43.7,23.7,29.95,West,274,7.0,12.0,45,0.00,BKN,SCT,0.00,0.0,WeatherDisplay:10.37,2013-02-03 23:05:00,
2013-02-03 18:10:00,43.4,24.0,29.96,West,271,7.0,12.0,46,0.00,BKN,SCT,0.00,0.0,WeatherDisplay:10.37,2013-02-03 23:10:00,
2013-02-03 18:15:00,43.1,24.2,29.96,West,272,3.0,8.0,47,0.00,BKN,SCT,0.00,0.0,WeatherDisplay:10.37,2013-02-03 23:15:00,
2013-02-03 18:20:00,42.7,23.9,29.96,West,274,3.0,9.0,47,0.00,BKN,SCT,0.00,0.0,WeatherDisplay:10.37,2013-02-03 23:20:00,
2013-02-03 18:30:00,42.1,23.3,29.96,West,272,3.0,8.0,47,0.00,BKN,SCT,0.00,0.0,WeatherDisplay:10.37,2013-02-03 23:30:00,
2013-02-03 18:35:00,41.8,23.6,29.97,West,270,1.0,6.0,48,0.00,BKN,SCT,0.00,0.0,WeatherDisplay:10.37,2013-02-03 23:35:00,
2013-02-03 18:40:00,41.6,23.9,29.97,West,269,1.0,5.0,49,0.00,BKN,SCT,0.00,0.0,WeatherDisplay:10.37,2013-02-03 23:40:00,
2013-02-03 18:45:00,41.5,23.7,29.98,West,269,0.0,3.0,49,0.00,BKN,SCT,0.00,0.0,WeatherDisplay:10.37,2013-02-03 23:45:00,
2013-02-03 18:50:00,41.3,23.6,29.98,West,267,1.0,7.0,49,0.00,BKN,SCT,0.00,0.0,WeatherDisplay:10.37,2013-02-03 23:50:00,
2013-02-03 18:55:00,41.1,23.4,29.99,WSW,257,2.0,7.0,49,0.00,BKN,SCT,0.00,0.0,WeatherDisplay:10.37,2013-02-03 23:55:00,
2013-02-03 19:00:00,41.0,23.3,29.99,WSW,256,2.0,4.0,49,0.00,BKN,SCT,0.00,0.0,WeatherDisplay:10.37,2013-02-04 00:00:00,
2013-02-03 19:05:00,40.9,23.2,29.99,WSW,256,3.0,5.0,49,0.00,BKN,SCT,0.00,0.0,WeatherDisplay:10.37,2013-02-04 00:05:00,
2013-02-03 19:15:00,40.7,23.0,29.99,WSW,256,2.0,5.0,49,0.00,BKN,SCT,0.00,0.0,WeatherDisplay:10.37,2013-02-04 00:15:00,
2013-02-03 19:20:00,40.5,23.3,29.98,WSW,256,1.0,4.0,50,0.00,BKN,SCT,0.00,0.0,WeatherDisplay:10.37,2013-02-04 00:20:00,
2013-02-03 19:25:00,40.3,23.2,29.98,WSW,258,2.0,6.0,50,0.00,BKN,SCT,0.00,0.0,WeatherDisplay:10.37,2013-02-04 00:25:00,
2013-02-03 19:30:00,40.1,22.9,29.98,West,260,0.0,3.0,50,0.00,BKN,SCT,0.00,0.0,WeatherDisplay:10.37,2013-02-04 00:30:00,
2013-02-03 19:35:00,39.9,23.2,29.99,West,261,0.0,3.0,51,0.00,BKN,SCT,0.00,0.0,WeatherDisplay:10.37,2013-02-04 00:35:00,
2013-02-03 19:40:00,39.7,23.0,29.99,West,261,0.0,3.0,51,0.00,BKN,SCT,0.00,0.0,WeatherDisplay:10.37,2013-02-04 00:40:00,
2013-02-03 19:45:00,39.6,22.9,30.00,West,261,0.0,1.0,51,0.00,BKN,SCT,0.00,0.0,WeatherDisplay:10.37,2013-02-04 00:45:00,
2013-02-03 19:50:00,39.3,22.7,30.00,West,261,0.0,1.0,51,0.00,BKN,SCT,0.00,0.0,WeatherDisplay:10.37,2013-02-04 00:50:00,
2013-02-03 19:55:00,39.0,22.4,30.00,West,261,0.0,1.0,51,0.00,BKN,SCT,0.00,0.0,WeatherDisplay:10.37,2013-02-04 00:55:00,
2013-02-03 20:00:00,38.8,22.7,30.00,West,261,0.0,1.0,52,0.00,BKN,SCT,0.00,0.0,WeatherDisplay:10.37,2013-02-04 01:00:00,
2013-02-03 20:05:00,38.6,22.9,30.00,West,261,0.0,0.0,53,0.00,BKN,SCT,0.00,0.0,WeatherDisplay:10.37,2013-02-04 01:05:00,
2013-02-03 20:10:00,38.0,22.8,30.00,West,261,0.0,2.0,54,0.00,BKN,SCT,0.00,0.0,WeatherDisplay:10.37,2013-02-04 01:10:00,
2013-02-03 20:15:00,37.5,22.7,30.00,West,261,0.0,0.0,55,0.00,BKN,SCT,0.00,0.0,WeatherDisplay:10.37,2013-02-04 01:15:00,
2013-02-03 20:20:00,37.0,22.7,30.00,West,260,0.0,0.0,56,0.00,BKN,SCT,0.00,0.0,WeatherDisplay:10.37,2013-02-04 01:20:00,
2013-02-03 20:25:00,36.4,22.6,30.00,West,261,0.0,0.0,57,0.00,BKN,SCT,0.00,0.0,WeatherDisplay:10.37,2013-02-04 01:25:00,
2013-02-03 20:30:00,36.1,22.3,30.00,West,261,0.0,2.0,57,0.00,BKN,SCT,0.00,0.0,WeatherDisplay:10.37,2013-02-04 01:30:00,
2013-02-03 20:35:00,35.8,22.5,30.00,West,261,1.0,4.0,58,0.00,BKN,SCT,0.00,0.0,WeatherDisplay:10.37,2013-02-04 01:35:00,
2013-02-03 20:40:00,35.7,22.4,30.00,West,261,0.0,3.0,58,0.00,BKN,SCT,0.00,0.0,WeatherDisplay:10.37,2013-02-04 01:40:00,
2013-02-03 20:45:00,35.8,22.5,30.00,West,261,0.0,1.0,58,0.00,BKN,SCT,0.00,0.0,WeatherDisplay:10.37,2013-02-04 01:45:00,
2013-02-03 20:50:00,35.8,22.5,30.00,West,261,0.0,1.0,58,0.00,BKN,SCT,0.00,0.0,WeatherDisplay:10.37,2013-02-04 01:50:00,
2013-02-03 21:00:00,35.8,22.5,30.00,West,261,0.0,1.0,58,0.00,BKN,SCT,0.00,0.0,WeatherDisplay:10.37,2013-02-04 02:00:00,
2013-02-03 21:05:00,35.7,22.4,30.00,West,260,0.0,0.0,58,0.00,BKN,SCT,0.00,0.0,WeatherDisplay:10.37,2013-02-04 02:05:00,
2013-02-03 21:10:00,35.7,22.4,30.01,West,261,0.0,0.0,58,0.00,BKN,SCT,0.00,0.0,WeatherDisplay:10.37,2013-02-04 02:10:00,
2013-02-03 21:15:00,35.5,22.6,30.01,West,261,0.0,0.0,59,0.00,BKN,SCT,0.00,0.0,WeatherDisplay:10.37,2013-02-04 02:15:00,
2013-02-03 21:20:00,35.3,22.4,30.01,West,260,0.0,0.0,59,0.00,BKN,SCT,0.00,0.0,WeatherDisplay:10.37,2013-02-04 02:20:00,
2013-02-03 21:25:00,35.0,22.1,30.01,West,261,0.0,0.0,59,0.00,BKN,SCT,0.00,0.0,WeatherDisplay:10.37,2013-02-04 02:25:00,
2013-02-03 21:30:00,34.4,21.9,30.01,West,261,0.0,1.0,60,0.00,BKN,SCT,0.00,0.0,WeatherDisplay:10.37,2013-02-04 02:30:00,
2013-02-03 21:35:00,33.5,22.6,30.01,West,261,0.0,1.0,64,0.00,BKN,SCT,0.00,0.0,WeatherDisplay:10.37,2013-02-04 02:35:00,
2013-02-03 21:40:00,33.1,22.6,30.01,West,261,0.0,0.0,65,0.00,BKN,SCT,0.00,0.0,WeatherDisplay:10.37,2013-02-04 02:40:00,
2013-02-03 21:50:00,32.7,21.8,30.01,West,261,0.0,0.0,64,0.00,BKN,SCT,0.00,0.0,WeatherDisplay:10.37,2013-02-04 02:50:00,
2013-02-03 21:55:00,32.4,21.6,30.01,West,261,0.0,0.0,64,0.00,BKN,SCT,0.00,0.0,WeatherDisplay:10.37,2013-02-04 02:55:00,
2013-02-03 22:00:00,32.2,21.4,30.01,West,261,0.0,0.0,64,0.00,BKN,SCT,0.00,0.0,WeatherDisplay:10.37,2013-02-04 03:00:00,
2013-02-03 22:05:00,32.0,21.2,30.01,West,261,0.0,0.0,64,0.00,BKN,SCT,0.00,0.0,WeatherDisplay:10.37,2013-02-04 03:05:00,
2013-02-03 22:10:00,31.6,21.5,30.01,West,261,0.0,1.0,66,0.00,BKN,SCT,0.00,0.0,WeatherDisplay:10.37,2013-02-04 03:10:00,
2013-02-03 22:15:00,31.0,21.7,30.01,West,261,0.0,2.0,68,0.00,BKN,SCT,0.00,0.0,WeatherDisplay:10.37,2013-02-04 03:15:00,
2013-02-03 22:20:00,30.3,21.7,30.02,West,261,0.0,2.0,70,0.00,BKN,SCT,0.00,0.0,WeatherDisplay:10.37,2013-02-04 03:20:00,
2013-02-03 22:30:00,29.6,21.3,30.01,West,260,0.0,1.0,71,0.00,BKN,SCT,0.00,0.0,WeatherDisplay:10.37,2013-02-04 03:30:00,
2013-02-03 22:35:00,29.4,21.5,30.01,West,260,0.0,0.0,72,0.00,BKN,SCT,0.00,0.0,WeatherDisplay:10.37,2013-02-04 03:35:00,
2013-02-03 22:40:00,29.2,21.3,30.01,West,261,0.0,0.0,72,0.00,BKN,SCT,0.00,0.0,WeatherDisplay:10.37,2013-02-04 03:40:00,
2013-02-03 22:45:00,29.1,21.2,30.01,West,261,0.0,0.0,72,0.00,BKN,SCT,0.00,0.0,WeatherDisplay:10.37,2013-02-04 03:45:00,
2013-02-03 22:50:00,29.0,21.1,30.01,West,261,0.0,0.0,72,0.00,BKN,SCT,0.00,0.0,WeatherDisplay:10.37,2013-02-04 03:50:00,
2013-02-03 22:55:00,28.8,20.9,30.02,West,261,0.0,2.0,72,0.00,BKN,SCT,0.00,0.0,WeatherDisplay:10.37,2013-02-04 03:55:00,
2013-02-03 23:05:00,28.6,21.0,30.02,West,261,0.0,0.0,73,0.00,BKN,SCT,0.00,0.0,WeatherDisplay:10.37,2013-02-04 04:05:00,
2013-02-03 23:10:00,28.5,20.9,30.02,West,261,1.0,2.0,73,0.00,BKN,SCT,0.00,0.0,WeatherDisplay:10.37,2013-02-04 04:10:00,
2013-02-03 23:20:00,28.2,21.0,30.02,West,261,0.0,0.0,74,0.00,BKN,SCT,0.00,0.0,WeatherDisplay:10.37,2013-02-04 04:20:00,
2013-02-03 23:30:00,27.9,20.7,30.03,West,261,0.0,0.0,74,0.00,BKN,SCT,0.00,0.0,WeatherDisplay:10.37,2013-02-04 04:30:00,
2013-02-03 23:35:00,27.8,20.6,30.02,West,261,0.0,0.0,74,0.00,BKN,SCT,0.00,0.0,WeatherDisplay:10.37,2013-02-04 04:35:00,
2013-02-03 23:40:00,27.6,20.4,30.02,West,261,0.0,0.0,74,0.00,BKN,SCT,0.00,0.0,WeatherDisplay:10.37,2013-02-04 04:40:00,
2013-02-03 23:45:00,27.5,20.3,30.02,West,261,0.0,0.0,74,0.00,BKN,SCT,0.00,0.0,WeatherDisplay:10.37,2013-02-04 04:45:00,
2013-02-03 23:55:00,27.2,20.6,30.02,West,260,1.0,1.0,76,0.00,BKN,SCT,0.00,0.0,WeatherDisplay:10.37,2013-02-04 04:55:00,